sensor_id;sensor_type;location;lat;lon;timestamp;pressure;altitude;pressure_sealevel;temperature
76713;BMP280;65640;43.154;25.658;2023-08-24T00:01:02;100534.75;;;25.61
76713;BMP280;65640;43.154;25.658;2023-08-24T00:03:27;100543.56;;;25.58
76713;BMP280;65640;43.154;25.658;2023-08-24T00:05:53;100540.06;;;25.50
76713;BMP280;65640;43.154;25.658;2023-08-24T00:08:19;100535.03;;;25.49
76713;BMP280;65640;43.154;25.658;2023-08-24T00:10:44;100531.97;;;25.47
76713;BMP280;65640;43.154;25.658;2023-08-24T00:13:13;100543.09;;;25.49
76713;BMP280;65640;43.154;25.658;2023-08-24T00:15:38;100540.78;;;25.47
76713;BMP280;65640;43.154;25.658;2023-08-24T00:18:05;100546.94;;;25.44
76713;BMP280;65640;43.154;25.658;2023-08-24T00:20:30;100546.94;;;25.48
76713;BMP280;65640;43.154;25.658;2023-08-24T00:22:58;100549.97;;;25.43
76713;BMP280;65640;43.154;25.658;2023-08-24T00:25:24;100555.28;;;25.36
76713;BMP280;65640;43.154;25.658;2023-08-24T00:27:52;100558.34;;;25.34
76713;BMP280;65640;43.154;25.658;2023-08-24T00:30:18;100579.03;;;25.34
76713;BMP280;65640;43.154;25.658;2023-08-24T00:32:43;100579.81;;;25.38
76713;BMP280;65640;43.154;25.658;2023-08-24T00:35:09;100570.53;;;25.28
76713;BMP280;65640;43.154;25.658;2023-08-24T00:37:36;100575.84;;;25.25
76713;BMP280;65640;43.154;25.658;2023-08-24T00:40:03;100587.00;;;25.27
76713;BMP280;65640;43.154;25.658;2023-08-24T00:42:42;100595.06;;;25.30
76713;BMP280;65640;43.154;25.658;2023-08-24T00:45:10;100584.69;;;25.22
76713;BMP280;65640;43.154;25.658;2023-08-24T00:47:37;100575.88;;;25.21
76713;BMP280;65640;43.154;25.658;2023-08-24T00:50:04;100571.72;;;25.31
76713;BMP280;65640;43.154;25.658;2023-08-24T00:52:31;100588.22;;;25.36
76713;BMP280;65640;43.154;25.658;2023-08-24T00:54:58;100578.19;;;25.23
76713;BMP280;65640;43.154;25.658;2023-08-24T00:57:28;100561.22;;;25.11
76713;BMP280;65640;43.154;25.658;2023-08-24T00:59:59;100562.66;;;24.98
76713;BMP280;65640;43.154;25.658;2023-08-24T01:02:24;100566.34;;;24.83
76713;BMP280;65640;43.154;25.658;2023-08-24T01:04:50;100556.94;;;24.63
76713;BMP280;65640;43.154;25.658;2023-08-24T01:07:16;100553.81;;;24.54
76713;BMP280;65640;43.154;25.658;2023-08-24T01:09:42;100555.09;;;24.30
76713;BMP280;65640;43.154;25.658;2023-08-24T01:17:36;100534.66;;;23.89
76713;BMP280;65640;43.154;25.658;2023-08-24T01:20:04;100526.13;;;23.76
76713;BMP280;65640;43.154;25.658;2023-08-24T01:25:16;100519.22;;;23.75
76713;BMP280;65640;43.154;25.658;2023-08-24T01:27:42;100515.63;;;23.64
76713;BMP280;65640;43.154;25.658;2023-08-24T01:30:08;100512.97;;;23.68
76713;BMP280;65640;43.154;25.658;2023-08-24T01:32:35;100512.22;;;23.67
76713;BMP280;65640;43.154;25.658;2023-08-24T01:35:05;100511.09;;;23.68
76713;BMP280;65640;43.154;25.658;2023-08-24T01:37:32;100513.47;;;23.73
76713;BMP280;65640;43.154;25.658;2023-08-24T01:40:06;100508.34;;;23.61
76713;BMP280;65640;43.154;25.658;2023-08-24T01:42:38;100493.03;;;23.58
76713;BMP280;65640;43.154;25.658;2023-08-24T01:45:05;100503.72;;;23.58
76713;BMP280;65640;43.154;25.658;2023-08-24T01:47:33;100489.81;;;23.49
76713;BMP280;65640;43.154;25.658;2023-08-24T01:50:01;100490.53;;;23.46
76713;BMP280;65640;43.154;25.658;2023-08-24T01:52:27;100490.13;;;23.44
76713;BMP280;65640;43.154;25.658;2023-08-24T01:54:53;100486.66;;;23.40
76713;BMP280;65640;43.154;25.658;2023-08-24T01:57:18;100493.56;;;23.41
76713;BMP280;65640;43.154;25.658;2023-08-24T01:59:44;100485.53;;;23.41
76713;BMP280;65640;43.154;25.658;2023-08-24T02:02:09;100487.56;;;23.51
76713;BMP280;65640;43.154;25.658;2023-08-24T02:04:34;100489.41;;;23.47
76713;BMP280;65640;43.154;25.658;2023-08-24T02:07:00;100489.81;;;23.49
76713;BMP280;65640;43.154;25.658;2023-08-24T02:09:25;100492.06;;;23.47
76713;BMP280;65640;43.154;25.658;2023-08-24T02:11:50;100486.66;;;23.40
76713;BMP280;65640;43.154;25.658;2023-08-24T02:14:16;100491.56;;;23.38
76713;BMP280;65640;43.154;25.658;2023-08-24T02:16:41;100502.81;;;23.50
76713;BMP280;65640;43.154;25.658;2023-08-24T02:19:07;100502.78;;;23.47
76713;BMP280;65640;43.154;25.658;2023-08-24T02:21:35;100501.31;;;23.27
76713;BMP280;65640;43.154;25.658;2023-08-24T02:24:01;100495.06;;;23.42
76713;BMP280;65640;43.154;25.658;2023-08-24T02:26:26;100491.50;;;23.34
76713;BMP280;65640;43.154;25.658;2023-08-24T02:28:52;100496.81;;;23.31
76713;BMP280;65640;43.154;25.658;2023-08-24T02:31:17;100495.91;;;23.23
76713;BMP280;65640;43.154;25.658;2023-08-24T02:33:42;100483.19;;;23.13
76713;BMP280;65640;43.154;25.658;2023-08-24T02:36:08;100474.03;;;23.14
76713;BMP280;65640;43.154;25.658;2023-08-24T02:38:33;100471.00;;;23.16
76713;BMP280;65640;43.154;25.658;2023-08-24T02:41:06;100472.00;;;23.30
76713;BMP280;65640;43.154;25.658;2023-08-24T02:43:32;100476.81;;;23.21
76713;BMP280;65640;43.154;25.658;2023-08-24T02:46:08;100465.81;;;23.26
76713;BMP280;65640;43.154;25.658;2023-08-24T02:48:34;100458.69;;;23.08
76713;BMP280;65640;43.154;25.658;2023-08-24T02:51:00;100461.53;;;22.95
76713;BMP280;65640;43.154;25.658;2023-08-24T02:53:26;100455.78;;;22.93
76713;BMP280;65640;43.154;25.658;2023-08-24T02:55:53;100457.63;;;22.89
76713;BMP280;65640;43.154;25.658;2023-08-24T02:58:19;100463.91;;;23.27
76713;BMP280;65640;43.154;25.658;2023-08-24T03:00:44;100468.72;;;23.40
76713;BMP280;65640;43.154;25.658;2023-08-24T03:03:10;100466.78;;;23.37
76713;BMP280;65640;43.154;25.658;2023-08-24T03:05:36;100467.63;;;23.19
76713;BMP280;65640;43.154;25.658;2023-08-24T03:08:02;100471.31;;;23.11
76713;BMP280;65640;43.154;25.658;2023-08-24T03:10:29;100476.22;;;23.09
76713;BMP280;65640;43.154;25.658;2023-08-24T03:12:55;100482.91;;;22.95
76713;BMP280;65640;43.154;25.658;2023-08-24T03:15:21;100492.25;;;22.86
76713;BMP280;65640;43.154;25.658;2023-08-24T03:17:46;100496.25;;;22.95
76713;BMP280;65640;43.154;25.658;2023-08-24T03:20:12;100513.94;;;23.04
76713;BMP280;65640;43.154;25.658;2023-08-24T03:22:37;100515.19;;;23.10
76713;BMP280;65640;43.154;25.658;2023-08-24T03:25:03;100514.34;;;23.06
76713;BMP280;65640;43.154;25.658;2023-08-24T03:27:29;100520.25;;;23.15
76713;BMP280;65640;43.154;25.658;2023-08-24T03:29:55;100516.72;;;23.11
76713;BMP280;65640;43.154;25.658;2023-08-24T03:32:20;100531.84;;;23.26
76713;BMP280;65640;43.154;25.658;2023-08-24T03:34:46;100539.88;;;23.26
76713;BMP280;65640;43.154;25.658;2023-08-24T03:37:11;100546.81;;;23.30
76713;BMP280;65640;43.154;25.658;2023-08-24T03:39:38;100551.03;;;23.31
76713;BMP280;65640;43.154;25.658;2023-08-24T03:42:03;100547.34;;;23.39
76713;BMP280;65640;43.154;25.658;2023-08-24T03:44:29;100547.56;;;23.53
76713;BMP280;65640;43.154;25.658;2023-08-24T03:46:55;100543.81;;;23.58
76713;BMP280;65640;43.154;25.658;2023-08-24T03:49:21;100538.19;;;23.63
76713;BMP280;65640;43.154;25.658;2023-08-24T03:51:48;100539.31;;;23.66
76713;BMP280;65640;43.154;25.658;2023-08-24T03:54:13;100546.47;;;23.58
76713;BMP280;65640;43.154;25.658;2023-08-24T03:56:39;100547.81;;;23.45
76713;BMP280;65640;43.154;25.658;2023-08-24T03:59:04;100541.69;;;23.44
76713;BMP280;65640;43.154;25.658;2023-08-24T04:01:30;100549.22;;;23.62
76713;BMP280;65640;43.154;25.658;2023-08-24T04:03:55;100548.88;;;23.63
76713;BMP280;65640;43.154;25.658;2023-08-24T04:06:21;100547.31;;;23.62
76713;BMP280;65640;43.154;25.658;2023-08-24T04:08:46;100548.50;;;23.65
76713;BMP280;65640;43.154;25.658;2023-08-24T04:11:11;100548.19;;;23.70
76713;BMP280;65640;43.154;25.658;2023-08-24T04:13:37;100552.44;;;23.74
76713;BMP280;65640;43.154;25.658;2023-08-24T04:16:02;100548.34;;;23.80
76713;BMP280;65640;43.154;25.658;2023-08-24T04:18:29;100543.47;;;23.89
76713;BMP280;65640;43.154;25.658;2023-08-24T04:20:54;100553.88;;;24.24
76713;BMP280;65640;43.154;25.658;2023-08-24T04:23:24;100542.94;;;24.40
76713;BMP280;65640;43.154;25.658;2023-08-24T04:25:50;100542.22;;;24.43
76713;BMP280;65640;43.154;25.658;2023-08-24T04:28:16;100535.44;;;24.56
76713;BMP280;65640;43.154;25.658;2023-08-24T04:30:49;100536.78;;;24.73
76713;BMP280;65640;43.154;25.658;2023-08-24T04:33:14;100531.06;;;24.74
76713;BMP280;65640;43.154;25.658;2023-08-24T04:35:40;100537.06;;;24.64
76713;BMP280;65640;43.154;25.658;2023-08-24T04:38:05;100537.06;;;24.64
76713;BMP280;65640;43.154;25.658;2023-08-24T04:40:53;100538.53;;;24.58
76713;BMP280;65640;43.154;25.658;2023-08-24T04:43:20;100539.41;;;24.66
76713;BMP280;65640;43.154;25.658;2023-08-24T04:45:47;100543.19;;;24.64
76713;BMP280;65640;43.154;25.658;2023-08-24T04:48:13;100544.38;;;24.67
76713;BMP280;65640;43.154;25.658;2023-08-24T04:50:39;100544.84;;;24.73
76713;BMP280;65640;43.154;25.658;2023-08-24T04:53:04;100544.47;;;24.78
76713;BMP280;65640;43.154;25.658;2023-08-24T04:55:31;100548.06;;;24.92
76713;BMP280;65640;43.154;25.658;2023-08-24T04:57:56;100558.47;;;25.04
76713;BMP280;65640;43.154;25.658;2023-08-24T05:00:21;100562.81;;;25.16
76713;BMP280;65640;43.154;25.658;2023-08-24T05:02:48;100574.41;;;25.31
76713;BMP280;65640;43.154;25.658;2023-08-24T05:05:13;100562.59;;;25.46
76713;BMP280;65640;43.154;25.658;2023-08-24T05:07:39;100570.03;;;25.63
76713;BMP280;65640;43.154;25.658;2023-08-24T05:10:05;100573.84;;;25.62
76713;BMP280;65640;43.154;25.658;2023-08-24T05:12:31;100575.34;;;25.56
76713;BMP280;65640;43.154;25.658;2023-08-24T05:14:59;100564.28;;;25.68
76713;BMP280;65640;43.154;25.658;2023-08-24T05:17:24;100578.09;;;25.70
76713;BMP280;65640;43.154;25.658;2023-08-24T05:19:53;100570.91;;;25.92
76713;BMP280;65640;43.154;25.658;2023-08-24T05:22:19;100571.09;;;26.27
76713;BMP280;65640;43.154;25.658;2023-08-24T05:24:44;100578.03;;;26.49
76713;BMP280;65640;43.154;25.658;2023-08-24T05:27:09;100575.78;;;26.72
76713;BMP280;65640;43.154;25.658;2023-08-24T05:29:35;100578.88;;;26.92
76713;BMP280;65640;43.154;25.658;2023-08-24T05:32:00;100580.41;;;26.97
76713;BMP280;65640;43.154;25.658;2023-08-24T05:34:26;100586.13;;;27.06
76713;BMP280;65640;43.154;25.658;2023-08-24T05:36:51;100587.69;;;27.17
76713;BMP280;65640;43.154;25.658;2023-08-24T05:39:16;100576.53;;;27.26
76713;BMP280;65640;43.154;25.658;2023-08-24T05:41:42;100568.88;;;27.17
76713;BMP280;65640;43.154;25.658;2023-08-24T05:44:07;100570.38;;;27.11
76713;BMP280;65640;43.154;25.658;2023-08-24T05:46:33;100569.25;;;27.19
76713;BMP280;65640;43.154;25.658;2023-08-24T05:48:58;100563.09;;;27.15
76713;BMP280;65640;43.154;25.658;2023-08-24T05:51:27;100565.75;;;27.05
76713;BMP280;65640;43.154;25.658;2023-08-24T05:53:53;100561.94;;;27.13
76713;BMP280;65640;43.154;25.658;2023-08-24T05:56:23;100580.41;;;27.00
76713;BMP280;65640;43.154;25.658;2023-08-24T05:58:49;100571.19;;;27.01
76713;BMP280;65640;43.154;25.658;2023-08-24T06:01:14;100584.63;;;26.94
76713;BMP280;65640;43.154;25.658;2023-08-24T06:03:39;100580.78;;;27.02
76713;BMP280;65640;43.154;25.658;2023-08-24T06:06:05;100587.25;;;27.40
76713;BMP280;65640;43.154;25.658;2023-08-24T06:08:31;100590.66;;;27.65
76713;BMP280;65640;43.154;25.658;2023-08-24T06:10:57;100597.06;;;27.96
76713;BMP280;65640;43.154;25.658;2023-08-24T06:13:22;100599.28;;;28.15
76713;BMP280;65640;43.154;25.658;2023-08-24T06:15:48;100609.31;;;28.15
76713;BMP280;65640;43.154;25.658;2023-08-24T06:18:13;100604.78;;;27.94
76713;BMP280;65640;43.154;25.658;2023-08-24T06:20:38;100605.59;;;27.84
76713;BMP280;65640;43.154;25.658;2023-08-24T06:23:04;100610.16;;;27.94
76713;BMP280;65640;43.154;25.658;2023-08-24T06:25:30;100605.50;;;28.05
76713;BMP280;65640;43.154;25.658;2023-08-24T06:27:57;100611.56;;;28.23
76713;BMP280;65640;43.154;25.658;2023-08-24T06:30:24;100613.84;;;28.32
76713;BMP280;65640;43.154;25.658;2023-08-24T06:32:49;100606.19;;;28.23
76713;BMP280;65640;43.154;25.658;2023-08-24T06:35:15;100611.19;;;28.28
76713;BMP280;65640;43.154;25.658;2023-08-24T06:37:40;100620.00;;;28.29
76713;BMP280;65640;43.154;25.658;2023-08-24T06:40:06;100616.59;;;28.21
76713;BMP280;65640;43.154;25.658;2023-08-24T06:42:32;100619.25;;;28.28
76713;BMP280;65640;43.154;25.658;2023-08-24T06:44:57;100617.19;;;28.53
76713;BMP280;65640;43.154;25.658;2023-08-24T06:47:22;100623.78;;;28.97
76713;BMP280;65640;43.154;25.658;2023-08-24T06:49:48;100614.50;;;29.38
76713;BMP280;65640;43.154;25.658;2023-08-24T06:52:13;100617.34;;;29.62
76713;BMP280;65640;43.154;25.658;2023-08-24T06:54:38;100618.31;;;29.78
76713;BMP280;65640;43.154;25.658;2023-08-24T06:57:04;100615.84;;;29.91
76713;BMP280;65640;43.154;25.658;2023-08-24T06:59:30;100614.66;;;30.19
76713;BMP280;65640;43.154;25.658;2023-08-24T07:01:55;100620.38;;;30.24
76713;BMP280;65640;43.154;25.658;2023-08-24T07:04:20;100620.44;;;30.47
76713;BMP280;65640;43.154;25.658;2023-08-24T07:06:46;100620.66;;;30.60
76713;BMP280;65640;43.154;25.658;2023-08-24T07:09:11;100609.94;;;30.76
76713;BMP280;65640;43.154;25.658;2023-08-24T07:11:37;100613.09;;;30.94
76713;BMP280;65640;43.154;25.658;2023-08-24T07:14:02;100605.66;;;31.02
76713;BMP280;65640;43.154;25.658;2023-08-24T07:16:27;100606.13;;;31.16
76713;BMP280;65640;43.154;25.658;2023-08-24T07:18:53;100598.72;;;31.20
76713;BMP280;65640;43.154;25.658;2023-08-24T07:21:18;100596.50;;;31.35
76713;BMP280;65640;43.154;25.658;2023-08-24T07:23:43;100584.13;;;31.54
76713;BMP280;65640;43.154;25.658;2023-08-24T07:26:09;100588.56;;;31.64
76713;BMP280;65640;43.154;25.658;2023-08-24T07:28:35;100586.91;;;31.86
76713;BMP280;65640;43.154;25.658;2023-08-24T07:31:10;100590.16;;;31.97
76713;BMP280;65640;43.154;25.658;2023-08-24T07:33:37;100591.78;;;31.94
76713;BMP280;65640;43.154;25.658;2023-08-24T07:36:04;100591.50;;;31.89
76713;BMP280;65640;43.154;25.658;2023-08-24T07:38:30;100594.94;;;31.73
76713;BMP280;65640;43.154;25.658;2023-08-24T07:40:57;100587.81;;;31.79
76713;BMP280;65640;43.154;25.658;2023-08-24T07:43:23;100586.59;;;32.16
76713;BMP280;65640;43.154;25.658;2023-08-24T07:45:48;100578.56;;;32.45
76713;BMP280;65640;43.154;25.658;2023-08-24T07:48:14;100582.91;;;32.71
76713;BMP280;65640;43.154;25.658;2023-08-24T07:50:40;100581.88;;;32.81
76713;BMP280;65640;43.154;25.658;2023-08-24T07:53:06;100587.22;;;32.97
76713;BMP280;65640;43.154;25.658;2023-08-24T07:55:31;100588.50;;;33.21
76713;BMP280;65640;43.154;25.658;2023-08-24T07:57:57;100576.06;;;33.49
76713;BMP280;65640;43.154;25.658;2023-08-24T08:00:22;100579.00;;;33.67
76713;BMP280;65640;43.154;25.658;2023-08-24T08:02:50;100572.38;;;33.93
76713;BMP280;65640;43.154;25.658;2023-08-24T08:05:16;100567.75;;;34.03
76713;BMP280;65640;43.154;25.658;2023-08-24T08:07:41;100571.91;;;33.95
76713;BMP280;65640;43.154;25.658;2023-08-24T08:10:07;100574.00;;;33.66
76713;BMP280;65640;43.154;25.658;2023-08-24T08:12:33;100565.09;;;33.65
76713;BMP280;65640;43.154;25.658;2023-08-24T08:14:59;100559.63;;;33.78
76713;BMP280;65640;43.154;25.658;2023-08-24T08:17:24;100559.03;;;33.74
76713;BMP280;65640;43.154;25.658;2023-08-24T08:19:54;100559.97;;;33.92
76713;BMP280;65640;43.154;25.658;2023-08-24T08:22:20;100563.91;;;34.26
76713;BMP280;65640;43.154;25.658;2023-08-24T08:24:45;100564.28;;;34.15
76713;BMP280;65640;43.154;25.658;2023-08-24T08:27:11;100560.41;;;34.25
76713;BMP280;65640;43.154;25.658;2023-08-24T08:29:36;100552.53;;;34.05
76713;BMP280;65640;43.154;25.658;2023-08-24T08:32:02;100554.16;;;34.03
76713;BMP280;65640;43.154;25.658;2023-08-24T08:34:27;100550.91;;;34.08
76713;BMP280;65640;43.154;25.658;2023-08-24T08:36:53;100553.13;;;34.22
76713;BMP280;65640;43.154;25.658;2023-08-24T08:39:18;100547.94;;;34.49
76713;BMP280;65640;43.154;25.658;2023-08-24T08:41:44;100546.09;;;34.46
76713;BMP280;65640;43.154;25.658;2023-08-24T08:44:13;100549.34;;;34.20
76713;BMP280;65640;43.154;25.658;2023-08-24T08:46:42;100543.19;;;34.19
76713;BMP280;65640;43.154;25.658;2023-08-24T08:49:09;100547.50;;;34.51
76713;BMP280;65640;43.154;25.658;2023-08-24T08:51:36;100545.66;;;34.69
76713;BMP280;65640;43.154;25.658;2023-08-24T08:54:02;100542.13;;;34.81
76713;BMP280;65640;43.154;25.658;2023-08-24T08:56:31;100540.91;;;35.13
76713;BMP280;65640;43.154;25.658;2023-08-24T08:58:58;100538.06;;;35.08
76713;BMP280;65640;43.154;25.658;2023-08-24T09:01:25;100536.69;;;34.81
76713;BMP280;65640;43.154;25.658;2023-08-24T09:03:51;100539.34;;;35.25
76713;BMP280;65640;43.154;25.658;2023-08-24T09:06:17;100530.06;;;35.71
76713;BMP280;65640;43.154;25.658;2023-08-24T09:08:43;100525.88;;;35.97
76713;BMP280;65640;43.154;25.658;2023-08-24T09:11:10;100526.03;;;35.94
76713;BMP280;65640;43.154;25.658;2023-08-24T09:13:35;100528.59;;;35.97
76713;BMP280;65640;43.154;25.658;2023-08-24T09:16:06;100520.88;;;36.05
76713;BMP280;65640;43.154;25.658;2023-08-24T09:18:38;100524.06;;;36.21
76713;BMP280;65640;43.154;25.658;2023-08-24T09:21:08;100523.91;;;36.34
76713;BMP280;65640;43.154;25.658;2023-08-24T09:23:34;100513.59;;;36.29
76713;BMP280;65640;43.154;25.658;2023-08-24T09:26:00;100517.69;;;36.43
76713;BMP280;65640;43.154;25.658;2023-08-24T09:28:25;100515.06;;;36.57
76713;BMP280;65640;43.154;25.658;2023-08-24T09:30:54;100517.22;;;36.53
76713;BMP280;65640;43.154;25.658;2023-08-24T09:33:20;100511.66;;;36.80
76713;BMP280;65640;43.154;25.658;2023-08-24T09:35:53;100507.81;;;36.96
76713;BMP280;65640;43.154;25.658;2023-08-24T09:38:21;100503.69;;;36.59
76713;BMP280;65640;43.154;25.658;2023-08-24T09:40:50;100505.53;;;36.53
76713;BMP280;65640;43.154;25.658;2023-08-24T09:43:16;100494.03;;;36.30
76713;BMP280;65640;43.154;25.658;2023-08-24T09:45:52;100494.78;;;36.40
76713;BMP280;65640;43.154;25.658;2023-08-24T09:48:18;100499.78;;;36.92
76713;BMP280;65640;43.154;25.658;2023-08-24T09:50:49;100489.94;;;37.18
76713;BMP280;65640;43.154;25.658;2023-08-24T09:53:20;100494.81;;;37.14
76713;BMP280;65640;43.154;25.658;2023-08-24T09:55:56;100492.09;;;36.82
76713;BMP280;65640;43.154;25.658;2023-08-24T09:58:24;100482.56;;;36.68
76713;BMP280;65640;43.154;25.658;2023-08-24T10:00:50;100483.38;;;36.60
76713;BMP280;65640;43.154;25.658;2023-08-24T10:03:18;100480.03;;;36.65
76713;BMP280;65640;43.154;25.658;2023-08-24T10:05:49;100481.41;;;36.51
76713;BMP280;65640;43.154;25.658;2023-08-24T10:08:17;100472.53;;;36.42
76713;BMP280;65640;43.154;25.658;2023-08-24T10:10:46;100464.97;;;36.69
76713;BMP280;65640;43.154;25.658;2023-08-24T10:13:23;100476.56;;;36.55
76713;BMP280;65640;43.154;25.658;2023-08-24T10:15:49;100468.97;;;36.59
76713;BMP280;65640;43.154;25.658;2023-08-24T10:18:15;100464.81;;;36.22
76713;BMP280;65640;43.154;25.658;2023-08-24T10:20:42;100459.78;;;36.29
76713;BMP280;65640;43.154;25.658;2023-08-24T10:23:11;100454.91;;;36.43
76713;BMP280;65640;43.154;25.658;2023-08-24T10:25:38;100446.75;;;36.75
76713;BMP280;65640;43.154;25.658;2023-08-24T10:28:05;100447.59;;;36.90
76713;BMP280;65640;43.154;25.658;2023-08-24T10:30:33;100443.59;;;37.00
76713;BMP280;65640;43.154;25.658;2023-08-24T10:33:00;100438.84;;;37.10
76713;BMP280;65640;43.154;25.658;2023-08-24T10:35:25;100441.13;;;37.11
76713;BMP280;65640;43.154;25.658;2023-08-24T10:37:52;100437.72;;;37.16
76713;BMP280;65640;43.154;25.658;2023-08-24T10:40:34;100431.94;;;37.24
76713;BMP280;65640;43.154;25.658;2023-08-24T10:43:04;100426.50;;;37.14
76713;BMP280;65640;43.154;25.658;2023-08-24T10:53:47;100407.91;;;37.66
76713;BMP280;65640;43.154;25.658;2023-08-24T10:56:17;100397.81;;;38.16
76713;BMP280;65640;43.154;25.658;2023-08-24T10:58:44;100390.00;;;38.23
76713;BMP280;65640;43.154;25.658;2023-08-24T11:01:17;100392.22;;;38.39
76713;BMP280;65640;43.154;25.658;2023-08-24T11:03:55;100388.81;;;37.95
76713;BMP280;65640;43.154;25.658;2023-08-24T11:06:21;100367.19;;;37.97
76713;BMP280;65640;43.154;25.658;2023-08-24T11:08:48;100376.41;;;38.14
76713;BMP280;65640;43.154;25.658;2023-08-24T11:11:21;100377.56;;;38.22
76713;BMP280;65640;43.154;25.658;2023-08-24T11:14:13;100371.50;;;37.89
76713;BMP280;65640;43.154;25.658;2023-08-24T11:16:44;100359.94;;;37.94
76713;BMP280;65640;43.154;25.658;2023-08-24T11:19:11;100360.59;;;37.74
76713;BMP280;65640;43.154;25.658;2023-08-24T11:21:41;100361.53;;;37.86
76713;BMP280;65640;43.154;25.658;2023-08-24T11:24:08;100355.75;;;38.13
76713;BMP280;65640;43.154;25.658;2023-08-24T11:26:34;100357.09;;;37.88
76713;BMP280;65640;43.154;25.658;2023-08-24T11:29:04;100344.53;;;37.82
76713;BMP280;65640;43.154;25.658;2023-08-24T11:31:30;100339.63;;;38.15
76713;BMP280;65640;43.154;25.658;2023-08-24T11:33:55;100345.38;;;38.17
76713;BMP280;65640;43.154;25.658;2023-08-24T11:36:21;100333.28;;;38.09
76713;BMP280;65640;43.154;25.658;2023-08-24T11:38:49;100332.38;;;37.83
76713;BMP280;65640;43.154;25.658;2023-08-24T11:41:17;100330.47;;;37.89
76713;BMP280;65640;43.154;25.658;2023-08-24T11:43:46;100320.31;;;37.89
76713;BMP280;65640;43.154;25.658;2023-08-24T11:46:19;100328.16;;;37.67
76713;BMP280;65640;43.154;25.658;2023-08-24T11:48:45;100319.63;;;37.36
76713;BMP280;65640;43.154;25.658;2023-08-24T11:51:12;100311.09;;;37.05
76713;BMP280;65640;43.154;25.658;2023-08-24T11:53:40;100306.44;;;37.20
76713;BMP280;65640;43.154;25.658;2023-08-24T11:56:08;100302.09;;;37.28
76713;BMP280;65640;43.154;25.658;2023-08-24T11:58:33;100302.41;;;37.45
76713;BMP280;65640;43.154;25.658;2023-08-24T12:00:58;100293.84;;;37.52
76713;BMP280;65640;43.154;25.658;2023-08-24T12:03:24;100294.16;;;37.15
76713;BMP280;65640;43.154;25.658;2023-08-24T12:05:50;100294.84;;;36.87
76713;BMP280;65640;43.154;25.658;2023-08-24T12:08:15;100286.06;;;36.59
76713;BMP280;65640;43.154;25.658;2023-08-24T12:10:43;100295.28;;;36.38
76713;BMP280;65640;43.154;25.658;2023-08-24T12:13:11;100286.06;;;36.59
76713;BMP280;65640;43.154;25.658;2023-08-24T12:15:37;100281.81;;;36.82
76713;BMP280;65640;43.154;25.658;2023-08-24T12:18:10;100282.13;;;36.60
76713;BMP280;65640;43.154;25.658;2023-08-24T12:20:36;100281.28;;;36.45
76713;BMP280;65640;43.154;25.658;2023-08-24T12:23:02;100280.78;;;36.23
76713;BMP280;65640;43.154;25.658;2023-08-24T12:25:28;100272.72;;;36.28
76713;BMP280;65640;43.154;25.658;2023-08-24T12:30:52;100275.59;;;37.19
76713;BMP280;65640;43.154;25.658;2023-08-24T12:33:28;100276.13;;;36.94
76713;BMP280;65640;43.154;25.658;2023-08-24T12:35:54;100270.41;;;37.07
76713;BMP280;65640;43.154;25.658;2023-08-24T12:38:24;100271.97;;;37.52
76713;BMP280;65640;43.154;25.658;2023-08-24T12:40:50;100268.91;;;37.79
76713;BMP280;65640;43.154;25.658;2023-08-24T12:43:15;100268.81;;;37.88
76713;BMP280;65640;43.154;25.658;2023-08-24T12:45:41;100260.97;;;37.95
76713;BMP280;65640;43.154;25.658;2023-08-24T12:48:07;100264.19;;;37.94
76713;BMP280;65640;43.154;25.658;2023-08-24T12:50:34;100257.53;;;37.66
76713;BMP280;65640;43.154;25.658;2023-08-24T12:52:59;100251.53;;;37.82
76713;BMP280;65640;43.154;25.658;2023-08-24T12:55:26;100254.53;;;38.13
76713;BMP280;65640;43.154;25.658;2023-08-24T12:57:51;100256.59;;;38.38
76713;BMP280;65640;43.154;25.658;2023-08-24T13:00:18;100265.75;;;38.35
76713;BMP280;65640;43.154;25.658;2023-08-24T13:02:44;100261.63;;;38.25
76713;BMP280;65640;43.154;25.658;2023-08-24T13:05:09;100255.97;;;38.49
76713;BMP280;65640;43.154;25.658;2023-08-24T13:07:35;100262.59;;;38.62
76713;BMP280;65640;43.154;25.658;2023-08-24T13:10:02;100267.38;;;38.47
76713;BMP280;65640;43.154;25.658;2023-08-24T13:12:28;100255.06;;;38.77
76713;BMP280;65640;43.154;25.658;2023-08-24T13:14:53;100268.41;;;38.70
76713;BMP280;65640;43.154;25.658;2023-08-24T13:17:18;100265.31;;;38.82
76713;BMP280;65640;43.154;25.658;2023-08-24T13:19:44;100265.31;;;38.82
76713;BMP280;65640;43.154;25.658;2023-08-24T13:22:10;100257.63;;;38.61
76713;BMP280;65640;43.154;25.658;2023-08-24T13:24:36;100264.72;;;38.33
76713;BMP280;65640;43.154;25.658;2023-08-24T13:27:02;100259.38;;;38.24
76713;BMP280;65640;43.154;25.658;2023-08-24T13:29:28;100256.13;;;38.05
76713;BMP280;65640;43.154;25.658;2023-08-24T13:31:53;100250.66;;;37.70
76713;BMP280;65640;43.154;25.658;2023-08-24T13:34:19;100250.88;;;37.52
76713;BMP280;65640;43.154;25.658;2023-08-24T13:36:44;100243.81;;;37.80
76713;BMP280;65640;43.154;25.658;2023-08-24T13:39:10;100242.72;;;38.07
76713;BMP280;65640;43.154;25.658;2023-08-24T13:41:36;100251.91;;;38.24
76713;BMP280;65640;43.154;25.658;2023-08-24T13:44:02;100245.81;;;38.15
76713;BMP280;65640;43.154;25.658;2023-08-24T13:46:28;100243.72;;;38.24
76713;BMP280;65640;43.154;25.658;2023-08-24T13:48:53;100245.19;;;38.25
76713;BMP280;65640;43.154;25.658;2023-08-24T13:51:19;100249.47;;;38.26
76713;BMP280;65640;43.154;25.658;2023-08-24T13:53:44;100239.75;;;38.45
76713;BMP280;65640;43.154;25.658;2023-08-24T13:56:09;100241.78;;;38.50
76713;BMP280;65640;43.154;25.658;2023-08-24T13:58:35;100250.72;;;38.45
76713;BMP280;65640;43.154;25.658;2023-08-24T14:01:00;100250.00;;;38.50